Pahrump, Nevada Weather observations

Data are for observation ending at time listed.
 Day   Time    Ave.   Ave.  Ave.  Vector   Max.   Stn.    Total    Solar   Ave.  
  of    of     Air    Rel.  Wind   Wind    Wind   Baro.  Precip.   Rad.    Soil  
Year   Day     Temp.  Hum.  Speed  Dir.    Gust   Pres.                    Temp. 
2014   (PST)    F      %     mph   deg.    mph     mb.     in.     W/m2     F   
------------------------------------------------------------------------------
 273   11:30   81.2    19    2.2   298      6.2   922.1    0.00     832    73.5
 273   11:40   82.1    19    2.0   273      5.8   921.9    0.00     837    74.0
 273   11:50   82.1    18    2.4   316      6.7   921.8    0.00     841    74.8
 273   12:00   82.5    18    1.9   260      5.1   921.7    0.00     838    75.5
 273   12:10   82.3    18    1.5   334      6.0   921.6    0.00     835    76.2
 273   12:20   82.9    17    2.5   300      7.8   921.5    0.00     831    77.0
 273   12:30   83.8    16    2.1   242      6.2   921.4    0.00     826    77.7
 273   12:40   82.7    16    2.2   161      5.6   921.2    0.00     816    78.4
 273   12:50   83.4    16    1.8   320      5.8   921.0    0.00     806    79.0
 273   13:00   83.0    16    2.1   333      6.5   920.8    0.00     794    79.6
 273   13:10   82.7    16    2.8   315      7.2   920.6    0.00     779    80.2
 273   13:20   82.9    16    1.3   314      4.2   920.4    0.00     764    80.7
 273   13:30   83.4    16    1.8   349      4.5   920.1    0.00     746    81.2
 273   13:40   82.5    16    2.3    51      5.7   919.8    0.00     728    81.6
 273   13:50   82.2    16    2.7     4      5.8   919.5    0.00     708    81.7
 273   14:00   82.2    16    1.5    73      4.7   919.1    0.00     685    81.7
 273   14:10   82.6    16    3.4   280     10.1   918.9    0.00     660    81.6
 273   14:20   82.5    16    2.5   216      5.2   918.7    0.00     636    81.4
 273   14:30   82.0    17    2.3   174      5.6   918.5    0.00     606    81.2
 273   14:40   82.5    16    2.0   100      4.0   918.3    0.00     561    80.9
 273   14:50   82.5    17    2.6   200      6.7   918.1    0.00     556    80.7
 273   15:00   82.7    16    2.4   282      6.5   918.0    0.00     525    80.4
 273   15:10   82.5    16    2.0   297      4.5   917.9    0.00     493    80.2
 273   15:20   81.8    17    1.9   350      4.8   917.7    0.00     460    80.0
 273   15:30   82.0    17    0.9   326      3.4   917.5    0.00     426    79.9
 273   15:40   82.2    17    1.5   187      4.3   917.4    0.00     232    79.7
 273   15:50   82.1    17    3.4   158      6.4   917.3    0.00      29    79.5
 273   16:00   82.1    17    2.9   212      6.8   917.3    0.00      26    79.3
 273   16:10   82.0    17    2.2   151      5.0   917.2    0.00      24    79.2
 273   16:20   81.9    17    2.6   177      6.0   917.1    0.00      23    79.1
 273   16:30   82.0    17    2.7   259      8.9   917.0    0.00      23    78.9
 273   16:40   81.7    18    2.5   259      8.5   917.0    0.00      23    78.8
 273   16:50   81.5    18    2.5   271      5.4   917.0    0.00      19    78.7
 273   17:00   81.1    18    1.7   256      4.5   917.0    0.00      17    78.5
 273   17:10   80.5    18    1.4   263      3.6   916.9    0.00      15    78.4
 273   17:20   79.9    19    1.0   264      2.6   916.9    0.00      10    78.3
 273   17:30   79.1    19    1.5   239      3.4   916.8    0.00       8    78.2
 273   17:40   78.3    20    2.2   227      3.7   916.6    0.00       3    78.1
 273   17:50   78.1    20    2.4   224      4.4   916.5    0.00       3    77.9
 273   18:00   77.9    20    1.9   211      3.4   916.5    0.00       0    77.8
 273   18:10   78.0    20    2.1   176      4.0   916.4    0.00       0    77.7
 273   18:20   78.7    19    2.9   133      4.2   916.3    0.00       0    77.6
 273   18:30   77.9    20    3.0   120      4.2   916.4    0.00       0    77.5
 273   18:40   78.0    20    3.8   136      5.3   916.4    0.00       0    77.3
 273   18:50   77.5    22    2.9   142      3.9   916.4    0.00       0    77.2
 273   19:00   76.5    22    3.8   122      5.3   916.4    0.00       0    77.1
 273   19:10   76.2    22    4.5   122      6.4   916.3    0.00       0    77.0
 273   19:20   76.0    22    3.5   107      6.6   916.4    0.00       0    76.9
 273   19:30   75.2    22    4.7    93      8.1   916.5    0.00       0    76.8
 273   19:40   74.9    22    5.1    97      7.8   916.4    0.00       0    76.7
 273   19:50   74.7    22    5.7   118     12.1   916.4    0.00       0    76.6
 273   20:00   75.1    22    6.5    97     10.7   916.6    0.00       0    76.5
 273   20:10   74.8    22    4.4   102      6.4   916.5    0.00       0    76.4
 273   20:20   74.6    22    4.9    90      7.5   916.5    0.00       0    76.3
 273   20:30   74.4    22    5.2    91      8.6   916.5    0.00       0    76.2
 273   20:40   73.8    23    6.4    92      9.4   916.5    0.00       0    76.1
 273   20:50   73.8    22    6.4    89      9.3   916.4    0.00       0    76.1
 273   21:00   73.7    23    7.0    93      9.9   916.2    0.00       0    76.0
 273   21:10   73.4    23    6.9    90      9.9   916.2    0.00       0    75.9
 273   21:20   73.5    22    7.8    92     11.2   916.1    0.00       0    75.8
 273   21:30   73.5    22    7.5    90     10.9   916.1    0.00       0    75.7
 273   21:40   73.2    22    7.5    92     10.4   916.1    0.00       0    75.7
 273   21:50   72.9    22    6.3    93      9.0   916.0    0.00       0    75.6
 273   22:00   72.1    24    2.3   293      6.4   916.0    0.00       0    75.5
 273   22:10   68.1    28    4.0   274      8.0   916.0    0.00       0    75.5
 273   22:20   65.6    30    1.9   275      5.0   915.8    0.00       0    75.4
 273   22:30   64.5    31    1.8   272      4.1   915.8    0.00       0    75.3
 273   22:40   64.0    31    0.8   157      2.0   915.6    0.00       0    75.2
 273   22:50   64.8    30    1.7   115      2.5   915.5    0.00       0    75.1
 273   23:00   65.7    30    1.6    92      3.1   915.5    0.00       0    74.9
 273   23:10   66.0    30    2.1   124      3.1   915.4    0.00       0    74.8
 273   23:20   65.8    32    1.7   186      3.9   915.3    0.00       0    74.7
 273   23:30   66.0    32    0.8    53      2.0   915.3    0.00       0    74.5
 273   23:40   65.0    32    1.7     0      3.1   915.3    0.00       0    74.4
 273   23:50   63.7    35    1.4   288      2.9   915.4    0.00       0    74.3
 274    0:00   62.7    34    1.3   293      2.4   915.4    0.00       0    74.2
 274    0:10   62.3    35    0.5   306      2.0   915.3    0.00       0    74.1
 274    0:20   62.2    33    1.6    44      2.8   915.3    0.00       0    74.0
 274    0:30   62.0    33    0.3    13      1.3   915.3    0.00       0    73.9
 274    0:40   62.2    34    1.2   358      2.6   915.3    0.00       0    73.8
 274    0:50   62.4    33    1.7   346      3.0   915.3    0.00       0    73.6
 274    1:00   62.1    35    0.4   281      1.7   915.3    0.00       0    73.5
 274    1:10   60.9    38    0.8   279      2.8   915.4    0.00       0    73.4
 274    1:20   60.4    36    0.8   327      2.9   915.3    0.00       0    73.3
 274    1:30   60.7    36    0.3   337      1.5   915.3    0.00       0    73.1
 274    1:40   61.0    36    1.1   354      2.2   915.3    0.00       0    73.1
 274    1:50   60.9    34    0.7    46      1.8   915.2    0.00       0    73.0
 274    2:00   61.3    34    0.6    88      1.5   915.1    0.00       0    72.8
 274    2:10   61.4    34    0.7    82      1.7   915.1    0.00       0    72.7
 274    2:20   61.6    34    0.6    94      2.2   915.1    0.00       0    72.6
 274    2:30   62.6    32    1.5    85      2.9   915.1    0.00       0    72.5
 274    2:40   62.6    32    1.2   133      2.0   915.1    0.00       0    72.4
 274    2:50   62.6    33    1.3   136      2.7   915.2    0.00       0    72.3
 274    3:00   63.0    33    1.7   142      3.1   915.2    0.00       0    72.2
 274    3:10   63.2    33    1.2   123      3.4   915.3    0.00       0    72.2
 274    3:20   63.7    31    2.0    66      4.5   915.5    0.00       0    72.1
 274    3:30   64.0    31    2.6    13      4.2   915.7    0.00       0    72.0
 274    3:40   64.3    31    1.2    44      2.6   915.7    0.00       0    71.9
 274    3:50   64.0    31    1.3    18      2.8   915.8    0.00       0    71.9
 274    4:00   64.2    31    1.2   354      3.1   915.9    0.00       0    71.8
 274    4:10   63.1    33    1.4   221      3.5   916.1    0.00       0    71.7
 274    4:20   62.8    33    1.9   215      3.5   916.1    0.00       0    71.7
 274    4:30   62.0    35    2.1   211      3.4   916.1    0.00       0    71.6
 274    4:40   61.4    36    1.1   238      2.6   916.1    0.00       0    71.5
 274    4:50   60.5    38    1.1   233      3.4   916.2    0.00       0    71.5
 274    5:00   60.0    38    2.4   180      3.9   916.3    0.00       0    71.4
 274    5:10   61.2    36    2.3   160      3.7   916.5    0.00       0    71.3
 274    5:20   61.4    36    2.5   167      4.1   916.7    0.00       0    71.2
 274    5:30   61.1    38    2.3   188      3.8   916.8    0.00       1    71.2
 274    5:40   60.6    39    2.1   149      4.4   916.9    0.00       3    71.1
 274    5:50   60.6    39    2.5   145      3.9   917.0    0.00       5    71.0
 274    6:00   60.9    38    2.3   156      3.4   917.1    0.00      11    71.0
 274    6:10   61.4    38    2.5   144      3.7   917.3    0.00      25    70.9
 274    6:20   62.3    37    3.3   152      4.9   917.4    0.00      49    70.8
 274    6:30   63.7    35    2.7   180      4.5   917.7    0.00      84    70.8
 274    6:40   64.4    34    4.9   188      6.4   918.0    0.00     126    70.8
 274    6:50   65.0    33    4.0   196      6.6   918.3    0.00     161    70.8
 274    7:00   65.2    32    4.2   194      7.9   918.6    0.00     194    70.9
 274    7:10   65.9    31    3.8   203      7.3   918.9    0.00     228    71.0
 274    7:20   67.1    30    3.5   190      6.1   919.2    0.00     262    71.2
 274    7:30   67.9    29    4.1   175      6.2   919.5    0.00     297    71.2
 274    7:40   69.1    27    3.6   161      5.4   919.8    0.00     331    71.4
 274    7:50   70.1    27    3.3   166      5.5   920.1    0.00     365    71.4
 274    8:00   70.6    27    3.8   177      5.7   920.3    0.00     398    71.5
 274    8:10   71.0    27    4.1   168      6.1   920.6    0.00     432    71.6
 274    8:20   71.7    26    4.1   168      6.5   920.8    0.00     465    71.7
 274    8:30   72.5    25    4.3   169      6.4   921.0    0.00     496    71.8
 274    8:40   73.3    24    4.3   161      6.0   921.1    0.00     526    71.9
 274    8:50   74.8    23    2.9   165      4.8   921.3    0.00     550    72.0
 274    9:00   76.0    22    2.3   172      4.0   921.6    0.00     574    72.1
 274    9:10   78.0    21    1.3   291      4.0   921.9    0.00     598    72.2
 274    9:20   79.4    20    1.3   311      3.7   922.1    0.00     624    72.3
 274    9:30   81.0    19    1.1   341      5.3   922.3    0.00     647    72.4
 274    9:40   81.0    18    7.6   344     17.6   922.5    0.00     672    72.5
 274    9:50   80.0    18   11.8   346     19.8   922.5    0.00     693    72.6
 274   10:00   79.6    18   11.8   349     20.1   922.4    0.00     717    72.8
 274   10:10   79.2    18   13.8   333     24.5   922.3    0.00     728    72.9
 274   10:20   79.1    18   15.9   333     25.7   922.2    0.00     369    73.1
 274   10:30   79.1    18   14.4   331     27.2   922.1    0.00     576    73.2
 274   10:40   79.3    18   15.2   334     24.6   922.0    0.00     780    73.5
 274   10:50   79.4    17   15.1   338     28.8   921.9    0.00     794    73.6
 274   11:00   79.5    17   14.7   335     22.9   921.8    0.00     783    73.7
 274   11:10   79.4    17   15.9   334     24.0   921.8    0.00     800    73.9
 274   11:20   79.8    17   15.7   334     27.0   921.8    0.00     821    74.2

Return to Pahrump, Nevada graphs page.


Western Regional Climate Center,wrcc@dri.edu